sensor_id;sensor_type;location;lat;lon;timestamp;P1;durP1;ratioP1;P2;durP2;ratioP2
56670;SDS011;42545;50.054;8.306;2022-11-15T00:00:33;6.70;;;3.92;;
56670;SDS011;42545;50.054;8.306;2022-11-15T00:03:00;10.15;;;6.97;;
56670;SDS011;42545;50.054;8.306;2022-11-15T00:05:28;6.88;;;5.03;;
56670;SDS011;42545;50.054;8.306;2022-11-15T00:08:02;6.97;;;5.07;;
56670;SDS011;42545;50.054;8.306;2022-11-15T00:10:31;8.75;;;5.68;;
56670;SDS011;42545;50.054;8.306;2022-11-15T00:12:57;6.55;;;4.90;;
56670;SDS011;42545;50.054;8.306;2022-11-15T00:15:25;13.90;;;8.32;;
56670;SDS011;42545;50.054;8.306;2022-11-15T00:17:51;8.32;;;5.75;;
56670;SDS011;42545;50.054;8.306;2022-11-15T00:20:20;7.30;;;5.25;;
56670;SDS011;42545;50.054;8.306;2022-11-15T00:22:47;9.18;;;5.75;;
56670;SDS011;42545;50.054;8.306;2022-11-15T00:25:18;8.77;;;5.78;;
56670;SDS011;42545;50.054;8.306;2022-11-15T00:27:44;9.52;;;7.07;;
56670;SDS011;42545;50.054;8.306;2022-11-15T00:30:11;7.45;;;5.28;;
56670;SDS011;42545;50.054;8.306;2022-11-15T00:32:39;9.68;;;6.72;;
56670;SDS011;42545;50.054;8.306;2022-11-15T00:35:06;8.07;;;5.43;;
56670;SDS011;42545;50.054;8.306;2022-11-15T00:37:34;9.23;;;5.72;;
56670;SDS011;42545;50.054;8.306;2022-11-15T00:40:03;7.45;;;5.32;;
56670;SDS011;42545;50.054;8.306;2022-11-15T00:42:32;7.03;;;4.85;;
56670;SDS011;42545;50.054;8.306;2022-11-15T00:44:59;7.07;;;4.55;;
56670;SDS011;42545;50.054;8.306;2022-11-15T00:47:26;6.75;;;4.50;;
56670;SDS011;42545;50.054;8.306;2022-11-15T00:49:53;6.28;;;4.43;;
56670;SDS011;42545;50.054;8.306;2022-11-15T00:52:21;6.45;;;3.90;;
56670;SDS011;42545;50.054;8.306;2022-11-15T00:54:49;6.40;;;4.57;;
56670;SDS011;42545;50.054;8.306;2022-11-15T00:57:16;6.05;;;4.40;;
56670;SDS011;42545;50.054;8.306;2022-11-15T00:59:45;5.43;;;4.35;;
56670;SDS011;42545;50.054;8.306;2022-11-15T01:02:12;5.35;;;3.63;;
56670;SDS011;42545;50.054;8.306;2022-11-15T01:04:39;5.97;;;4.43;;
56670;SDS011;42545;50.054;8.306;2022-11-15T01:07:06;5.85;;;4.38;;
56670;SDS011;42545;50.054;8.306;2022-11-15T01:09:33;5.72;;;3.70;;
56670;SDS011;42545;50.054;8.306;2022-11-15T01:12:01;4.53;;;3.30;;
56670;SDS011;42545;50.054;8.306;2022-11-15T01:14:28;4.05;;;3.15;;
56670;SDS011;42545;50.054;8.306;2022-11-15T01:16:56;4.72;;;3.35;;
56670;SDS011;42545;50.054;8.306;2022-11-15T01:19:23;4.07;;;3.00;;
56670;SDS011;42545;50.054;8.306;2022-11-15T01:21:51;3.70;;;2.90;;
56670;SDS011;42545;50.054;8.306;2022-11-15T01:24:18;3.83;;;2.70;;
56670;SDS011;42545;50.054;8.306;2022-11-15T01:26:45;3.67;;;2.50;;
56670;SDS011;42545;50.054;8.306;2022-11-15T01:29:12;3.70;;;2.60;;
56670;SDS011;42545;50.054;8.306;2022-11-15T01:31:39;3.50;;;2.63;;
56670;SDS011;42545;50.054;8.306;2022-11-15T01:34:09;3.75;;;2.95;;
56670;SDS011;42545;50.054;8.306;2022-11-15T01:36:36;3.60;;;2.83;;
56670;SDS011;42545;50.054;8.306;2022-11-15T01:39:03;3.00;;;2.15;;
56670;SDS011;42545;50.054;8.306;2022-11-15T01:41:31;3.10;;;2.40;;
56670;SDS011;42545;50.054;8.306;2022-11-15T01:47:04;3.92;;;3.00;;
56670;SDS011;42545;50.054;8.306;2022-11-15T01:49:37;3.47;;;2.50;;
56670;SDS011;42545;50.054;8.306;2022-11-15T01:52:07;5.05;;;3.97;;
56670;SDS011;42545;50.054;8.306;2022-11-15T01:54:39;3.78;;;2.75;;
56670;SDS011;42545;50.054;8.306;2022-11-15T01:57:06;3.78;;;2.70;;
56670;SDS011;42545;50.054;8.306;2022-11-15T01:59:36;4.38;;;2.80;;
56670;SDS011;42545;50.054;8.306;2022-11-15T02:02:06;5.72;;;4.25;;
56670;SDS011;42545;50.054;8.306;2022-11-15T02:04:35;5.05;;;4.13;;
56670;SDS011;42545;50.054;8.306;2022-11-15T02:07:06;3.78;;;3.00;;
56670;SDS011;42545;50.054;8.306;2022-11-15T02:09:37;4.47;;;3.25;;
56670;SDS011;42545;50.054;8.306;2022-11-15T02:12:04;5.50;;;3.20;;
56670;SDS011;42545;50.054;8.306;2022-11-15T02:14:33;4.03;;;2.90;;
56670;SDS011;42545;50.054;8.306;2022-11-15T02:17:02;9.07;;;6.35;;
56670;SDS011;42545;50.054;8.306;2022-11-15T02:19:46;5.30;;;3.90;;
56670;SDS011;42545;50.054;8.306;2022-11-15T02:22:37;9.43;;;5.90;;
56670;SDS011;42545;50.054;8.306;2022-11-15T02:25:23;7.35;;;5.05;;
56670;SDS011;42545;50.054;8.306;2022-11-15T02:28:08;6.47;;;4.43;;
56670;SDS011;42545;50.054;8.306;2022-11-15T02:30:48;8.25;;;5.03;;
56670;SDS011;42545;50.054;8.306;2022-11-15T02:33:26;6.32;;;4.13;;
56670;SDS011;42545;50.054;8.306;2022-11-15T02:36:02;6.93;;;4.83;;
56670;SDS011;42545;50.054;8.306;2022-11-15T02:38:34;6.65;;;4.85;;
56670;SDS011;42545;50.054;8.306;2022-11-15T02:41:08;4.70;;;3.55;;
56670;SDS011;42545;50.054;8.306;2022-11-15T02:43:38;5.70;;;4.15;;
56670;SDS011;42545;50.054;8.306;2022-11-15T02:46:27;11.70;;;6.03;;
56670;SDS011;42545;50.054;8.306;2022-11-15T02:49:17;6.82;;;5.00;;
56670;SDS011;42545;50.054;8.306;2022-11-15T02:51:45;7.72;;;5.00;;
56670;SDS011;42545;50.054;8.306;2022-11-15T02:54:15;5.40;;;4.10;;
56670;SDS011;42545;50.054;8.306;2022-11-15T02:56:46;5.82;;;4.35;;
56670;SDS011;42545;50.054;8.306;2022-11-15T02:59:18;7.85;;;5.40;;
56670;SDS011;42545;50.054;8.306;2022-11-15T03:02:06;8.32;;;5.90;;
56670;SDS011;42545;50.054;8.306;2022-11-15T03:04:43;7.93;;;5.40;;
56670;SDS011;42545;50.054;8.306;2022-11-15T03:07:17;8.52;;;5.25;;
56670;SDS011;42545;50.054;8.306;2022-11-15T03:09:50;6.32;;;4.72;;
56670;SDS011;42545;50.054;8.306;2022-11-15T03:12:23;7.95;;;5.35;;
56670;SDS011;42545;50.054;8.306;2022-11-15T03:14:56;6.55;;;4.53;;
56670;SDS011;42545;50.054;8.306;2022-11-15T03:17:30;6.07;;;4.32;;
56670;SDS011;42545;50.054;8.306;2022-11-15T03:20:04;5.22;;;4.20;;
56670;SDS011;42545;50.054;8.306;2022-11-15T03:22:35;4.90;;;3.58;;
56670;SDS011;42545;50.054;8.306;2022-11-15T03:25:09;6.13;;;4.45;;
56670;SDS011;42545;50.054;8.306;2022-11-15T03:27:46;4.95;;;4.00;;
56670;SDS011;42545;50.054;8.306;2022-11-15T03:30:17;5.60;;;3.92;;
56670;SDS011;42545;50.054;8.306;2022-11-15T03:32:52;4.85;;;3.58;;
56670;SDS011;42545;50.054;8.306;2022-11-15T03:35:22;4.43;;;3.25;;
56670;SDS011;42545;50.054;8.306;2022-11-15T03:37:53;5.05;;;3.20;;
56670;SDS011;42545;50.054;8.306;2022-11-15T03:40:27;4.55;;;3.40;;
56670;SDS011;42545;50.054;8.306;2022-11-15T03:43:02;4.43;;;3.20;;
56670;SDS011;42545;50.054;8.306;2022-11-15T03:45:35;3.88;;;3.13;;
56670;SDS011;42545;50.054;8.306;2022-11-15T03:48:10;4.30;;;3.25;;
56670;SDS011;42545;50.054;8.306;2022-11-15T03:50:40;3.95;;;3.20;;
56670;SDS011;42545;50.054;8.306;2022-11-15T03:53:09;4.93;;;3.80;;
56670;SDS011;42545;50.054;8.306;2022-11-15T03:55:39;4.53;;;3.40;;
56670;SDS011;42545;50.054;8.306;2022-11-15T03:58:07;4.55;;;3.35;;
56670;SDS011;42545;50.054;8.306;2022-11-15T04:00:34;4.75;;;3.10;;
56670;SDS011;42545;50.054;8.306;2022-11-15T04:03:02;4.80;;;3.30;;
56670;SDS011;42545;50.054;8.306;2022-11-15T04:05:32;5.38;;;3.90;;
56670;SDS011;42545;50.054;8.306;2022-11-15T04:07:59;5.43;;;4.00;;
56670;SDS011;42545;50.054;8.306;2022-11-15T04:10:27;5.03;;;3.58;;
56670;SDS011;42545;50.054;8.306;2022-11-15T04:12:54;4.72;;;3.45;;
56670;SDS011;42545;50.054;8.306;2022-11-15T04:15:22;5.40;;;4.03;;
56670;SDS011;42545;50.054;8.306;2022-11-15T04:17:50;6.57;;;4.68;;
56670;SDS011;42545;50.054;8.306;2022-11-15T04:20:19;7.43;;;4.72;;
56670;SDS011;42545;50.054;8.306;2022-11-15T04:23:07;6.78;;;4.70;;
56670;SDS011;42545;50.054;8.306;2022-11-15T04:25:54;5.75;;;4.10;;
56670;SDS011;42545;50.054;8.306;2022-11-15T04:28:22;6.57;;;4.85;;
56670;SDS011;42545;50.054;8.306;2022-11-15T04:30:50;5.47;;;3.90;;
56670;SDS011;42545;50.054;8.306;2022-11-15T04:33:17;4.82;;;3.83;;
56670;SDS011;42545;50.054;8.306;2022-11-15T04:35:44;6.03;;;4.15;;
56670;SDS011;42545;50.054;8.306;2022-11-15T04:38:33;6.00;;;4.82;;
56670;SDS011;42545;50.054;8.306;2022-11-15T04:41:01;6.47;;;4.80;;
56670;SDS011;42545;50.054;8.306;2022-11-15T04:43:28;4.45;;;3.40;;
56670;SDS011;42545;50.054;8.306;2022-11-15T04:45:55;7.45;;;4.13;;
56670;SDS011;42545;50.054;8.306;2022-11-15T04:48:22;6.40;;;4.70;;
56670;SDS011;42545;50.054;8.306;2022-11-15T04:50:49;4.28;;;3.22;;
56670;SDS011;42545;50.054;8.306;2022-11-15T04:53:16;3.35;;;3.05;;
56670;SDS011;42545;50.054;8.306;2022-11-15T04:55:46;4.60;;;3.25;;
56670;SDS011;42545;50.054;8.306;2022-11-15T04:58:13;7.35;;;5.00;;
56670;SDS011;42545;50.054;8.306;2022-11-15T05:00:41;4.68;;;3.30;;
56670;SDS011;42545;50.054;8.306;2022-11-15T05:03:08;4.63;;;3.30;;
56670;SDS011;42545;50.054;8.306;2022-11-15T05:05:53;3.72;;;2.92;;
56670;SDS011;42545;50.054;8.306;2022-11-15T05:08:20;3.88;;;2.83;;
56670;SDS011;42545;50.054;8.306;2022-11-15T05:10:49;4.65;;;2.92;;
56670;SDS011;42545;50.054;8.306;2022-11-15T05:13:16;3.80;;;3.03;;
56670;SDS011;42545;50.054;8.306;2022-11-15T05:15:44;3.65;;;2.90;;
56670;SDS011;42545;50.054;8.306;2022-11-15T05:18:11;5.18;;;4.22;;
56670;SDS011;42545;50.054;8.306;2022-11-15T05:20:38;5.70;;;3.20;;
56670;SDS011;42545;50.054;8.306;2022-11-15T05:23:07;6.63;;;4.22;;
56670;SDS011;42545;50.054;8.306;2022-11-15T05:25:35;4.38;;;3.42;;
56670;SDS011;42545;50.054;8.306;2022-11-15T05:28:07;6.07;;;4.63;;
56670;SDS011;42545;50.054;8.306;2022-11-15T05:30:34;5.15;;;4.22;;
56670;SDS011;42545;50.054;8.306;2022-11-15T05:33:04;5.57;;;4.10;;
56670;SDS011;42545;50.054;8.306;2022-11-15T05:35:32;4.72;;;3.42;;
56670;SDS011;42545;50.054;8.306;2022-11-15T05:38:03;4.63;;;3.58;;
56670;SDS011;42545;50.054;8.306;2022-11-15T05:40:30;8.85;;;5.60;;
56670;SDS011;42545;50.054;8.306;2022-11-15T05:42:58;5.65;;;4.07;;
56670;SDS011;42545;50.054;8.306;2022-11-15T05:45:31;6.35;;;4.75;;
56670;SDS011;42545;50.054;8.306;2022-11-15T05:48:00;8.63;;;4.75;;
56670;SDS011;42545;50.054;8.306;2022-11-15T05:50:33;6.20;;;4.70;;
56670;SDS011;42545;50.054;8.306;2022-11-15T05:53:02;6.53;;;4.22;;
56670;SDS011;42545;50.054;8.306;2022-11-15T05:55:29;5.22;;;4.00;;
56670;SDS011;42545;50.054;8.306;2022-11-15T05:57:56;4.65;;;3.95;;
56670;SDS011;42545;50.054;8.306;2022-11-15T06:00:23;5.55;;;4.10;;
56670;SDS011;42545;50.054;8.306;2022-11-15T06:02:54;4.15;;;3.70;;
56670;SDS011;42545;50.054;8.306;2022-11-15T06:05:21;4.68;;;3.60;;
56670;SDS011;42545;50.054;8.306;2022-11-15T06:07:48;4.45;;;3.20;;
56670;SDS011;42545;50.054;8.306;2022-11-15T06:10:15;4.45;;;3.10;;
56670;SDS011;42545;50.054;8.306;2022-11-15T06:12:42;3.80;;;3.10;;
56670;SDS011;42545;50.054;8.306;2022-11-15T06:15:10;3.90;;;2.80;;
56670;SDS011;42545;50.054;8.306;2022-11-15T06:17:37;5.53;;;3.97;;
56670;SDS011;42545;50.054;8.306;2022-11-15T06:20:06;8.90;;;6.05;;
56670;SDS011;42545;50.054;8.306;2022-11-15T06:22:34;10.52;;;6.93;;
56670;SDS011;42545;50.054;8.306;2022-11-15T06:25:01;9.15;;;6.10;;
56670;SDS011;42545;50.054;8.306;2022-11-15T06:27:28;9.65;;;6.38;;
56670;SDS011;42545;50.054;8.306;2022-11-15T06:29:54;7.82;;;5.60;;
56670;SDS011;42545;50.054;8.306;2022-11-15T06:32:24;6.97;;;4.60;;
56670;SDS011;42545;50.054;8.306;2022-11-15T06:34:53;7.70;;;5.38;;
56670;SDS011;42545;50.054;8.306;2022-11-15T06:37:21;6.88;;;4.82;;
56670;SDS011;42545;50.054;8.306;2022-11-15T06:39:49;6.20;;;4.47;;
56670;SDS011;42545;50.054;8.306;2022-11-15T06:42:15;6.43;;;5.07;;
56670;SDS011;42545;50.054;8.306;2022-11-15T06:44:42;5.40;;;3.90;;
56670;SDS011;42545;50.054;8.306;2022-11-15T06:47:09;5.43;;;3.92;;
56670;SDS011;42545;50.054;8.306;2022-11-15T06:49:36;6.05;;;4.40;;
56670;SDS011;42545;50.054;8.306;2022-11-15T06:52:03;5.47;;;3.83;;
56670;SDS011;42545;50.054;8.306;2022-11-15T06:54:38;10.82;;;8.05;;
56670;SDS011;42545;50.054;8.306;2022-11-15T06:57:05;7.85;;;4.63;;
56670;SDS011;42545;50.054;8.306;2022-11-15T06:59:32;5.25;;;4.05;;
56670;SDS011;42545;50.054;8.306;2022-11-15T07:01:59;5.40;;;4.10;;
56670;SDS011;42545;50.054;8.306;2022-11-15T07:04:27;5.35;;;4.28;;
56670;SDS011;42545;50.054;8.306;2022-11-15T07:06:54;7.70;;;4.40;;
56670;SDS011;42545;50.054;8.306;2022-11-15T07:09:21;9.43;;;6.18;;
56670;SDS011;42545;50.054;8.306;2022-11-15T07:11:50;7.00;;;5.45;;
56670;SDS011;42545;50.054;8.306;2022-11-15T07:14:19;6.65;;;4.60;;
56670;SDS011;42545;50.054;8.306;2022-11-15T07:16:46;9.00;;;5.18;;
56670;SDS011;42545;50.054;8.306;2022-11-15T07:19:13;8.43;;;5.75;;
56670;SDS011;42545;50.054;8.306;2022-11-15T07:21:40;5.15;;;4.40;;
56670;SDS011;42545;50.054;8.306;2022-11-15T07:24:07;6.13;;;4.57;;
56670;SDS011;42545;50.054;8.306;2022-11-15T07:26:34;6.55;;;4.57;;
56670;SDS011;42545;50.054;8.306;2022-11-15T07:29:03;7.88;;;5.53;;
56670;SDS011;42545;50.054;8.306;2022-11-15T07:33:59;13.45;;;7.60;;
56670;SDS011;42545;50.054;8.306;2022-11-15T07:36:29;9.30;;;6.63;;
56670;SDS011;42545;50.054;8.306;2022-11-15T07:38:56;12.23;;;7.93;;
56670;SDS011;42545;50.054;8.306;2022-11-15T07:41:23;11.13;;;7.85;;
56670;SDS011;42545;50.054;8.306;2022-11-15T07:43:50;9.75;;;6.30;;
56670;SDS011;42545;50.054;8.306;2022-11-15T07:46:22;9.63;;;6.00;;
56670;SDS011;42545;50.054;8.306;2022-11-15T07:48:49;8.93;;;5.68;;
56670;SDS011;42545;50.054;8.306;2022-11-15T07:51:17;7.10;;;4.93;;
56670;SDS011;42545;50.054;8.306;2022-11-15T07:53:44;6.43;;;4.72;;
56670;SDS011;42545;50.054;8.306;2022-11-15T07:56:11;6.50;;;4.25;;
56670;SDS011;42545;50.054;8.306;2022-11-15T07:58:39;5.80;;;3.97;;
56670;SDS011;42545;50.054;8.306;2022-11-15T08:01:06;5.85;;;4.13;;
56670;SDS011;42545;50.054;8.306;2022-11-15T08:03:36;4.97;;;3.60;;
56670;SDS011;42545;50.054;8.306;2022-11-15T08:06:06;5.25;;;3.70;;
56670;SDS011;42545;50.054;8.306;2022-11-15T08:08:34;5.20;;;3.40;;
56670;SDS011;42545;50.054;8.306;2022-11-15T08:11:01;4.80;;;3.67;;
56670;SDS011;42545;50.054;8.306;2022-11-15T08:13:30;4.75;;;3.60;;
56670;SDS011;42545;50.054;8.306;2022-11-15T08:15:57;4.10;;;3.25;;
56670;SDS011;42545;50.054;8.306;2022-11-15T08:18:30;4.28;;;3.10;;
56670;SDS011;42545;50.054;8.306;2022-11-15T08:21:00;3.10;;;2.72;;
56670;SDS011;42545;50.054;8.306;2022-11-15T08:23:27;3.38;;;2.78;;
56670;SDS011;42545;50.054;8.306;2022-11-15T08:25:58;3.88;;;2.65;;
56670;SDS011;42545;50.054;8.306;2022-11-15T08:28:32;4.53;;;3.28;;
56670;SDS011;42545;50.054;8.306;2022-11-15T08:31:01;7.07;;;4.63;;
56670;SDS011;42545;50.054;8.306;2022-11-15T08:33:31;8.32;;;5.07;;
56670;SDS011;42545;50.054;8.306;2022-11-15T08:36:00;5.47;;;4.30;;
56670;SDS011;42545;50.054;8.306;2022-11-15T08:38:28;5.18;;;4.00;;
56670;SDS011;42545;50.054;8.306;2022-11-15T08:40:59;5.30;;;3.97;;
56670;SDS011;42545;50.054;8.306;2022-11-15T08:43:35;5.25;;;3.70;;
56670;SDS011;42545;50.054;8.306;2022-11-15T08:46:01;4.93;;;3.28;;
56670;SDS011;42545;50.054;8.306;2022-11-15T08:48:29;4.25;;;3.55;;
56670;SDS011;42545;50.054;8.306;2022-11-15T08:50:56;4.15;;;3.30;;
56670;SDS011;42545;50.054;8.306;2022-11-15T08:53:25;6.07;;;3.88;;
56670;SDS011;42545;50.054;8.306;2022-11-15T08:55:53;8.82;;;5.88;;
56670;SDS011;42545;50.054;8.306;2022-11-15T08:58:22;8.80;;;5.25;;
56670;SDS011;42545;50.054;8.306;2022-11-15T09:00:49;5.95;;;4.40;;
56670;SDS011;42545;50.054;8.306;2022-11-15T09:03:17;7.13;;;5.00;;
56670;SDS011;42545;50.054;8.306;2022-11-15T09:05:45;8.35;;;6.45;;
56670;SDS011;42545;50.054;8.306;2022-11-15T09:08:13;7.60;;;5.35;;
56670;SDS011;42545;50.054;8.306;2022-11-15T09:10:42;9.90;;;6.32;;
56670;SDS011;42545;50.054;8.306;2022-11-15T09:13:09;10.50;;;7.25;;
56670;SDS011;42545;50.054;8.306;2022-11-15T09:15:36;9.25;;;6.25;;
56670;SDS011;42545;50.054;8.306;2022-11-15T09:18:03;8.95;;;5.45;;
56670;SDS011;42545;50.054;8.306;2022-11-15T09:20:30;9.25;;;5.80;;
56670;SDS011;42545;50.054;8.306;2022-11-15T09:22:59;8.20;;;5.88;;
56670;SDS011;42545;50.054;8.306;2022-11-15T09:25:28;7.75;;;5.43;;
56670;SDS011;42545;50.054;8.306;2022-11-15T09:27:56;6.97;;;5.40;;
56670;SDS011;42545;50.054;8.306;2022-11-15T09:30:23;7.05;;;5.35;;
56670;SDS011;42545;50.054;8.306;2022-11-15T09:32:49;6.35;;;5.25;;
56670;SDS011;42545;50.054;8.306;2022-11-15T09:35:17;7.45;;;5.28;;
56670;SDS011;42545;50.054;8.306;2022-11-15T09:37:44;7.22;;;5.75;;
56670;SDS011;42545;50.054;8.306;2022-11-15T09:40:11;8.52;;;5.93;;
56670;SDS011;42545;50.054;8.306;2022-11-15T09:45:23;10.30;;;6.72;;
56670;SDS011;42545;50.054;8.306;2022-11-15T09:48:15;9.52;;;6.45;;
56670;SDS011;42545;50.054;8.306;2022-11-15T09:50:57;10.55;;;6.95;;
56670;SDS011;42545;50.054;8.306;2022-11-15T09:53:29;10.30;;;7.63;;
56670;SDS011;42545;50.054;8.306;2022-11-15T09:56:03;12.40;;;9.05;;
56670;SDS011;42545;50.054;8.306;2022-11-15T09:58:42;12.32;;;8.60;;
56670;SDS011;42545;50.054;8.306;2022-11-15T10:01:25;13.35;;;8.48;;
56670;SDS011;42545;50.054;8.306;2022-11-15T10:04:01;20.35;;;10.25;;
56670;SDS011;42545;50.054;8.306;2022-11-15T10:06:31;12.82;;;8.95;;
56670;SDS011;42545;50.054;8.306;2022-11-15T10:09:04;11.00;;;7.85;;
56670;SDS011;42545;50.054;8.306;2022-11-15T10:11:34;10.80;;;8.45;;
56670;SDS011;42545;50.054;8.306;2022-11-15T10:14:04;10.50;;;6.93;;
56670;SDS011;42545;50.054;8.306;2022-11-15T10:16:51;10.80;;;7.13;;
56670;SDS011;42545;50.054;8.306;2022-11-15T10:19:31;7.07;;;6.13;;
56670;SDS011;42545;50.054;8.306;2022-11-15T10:22:09;7.53;;;5.65;;
56670;SDS011;42545;50.054;8.306;2022-11-15T10:24:47;11.23;;;8.48;;
56670;SDS011;42545;50.054;8.306;2022-11-15T10:27:24;10.63;;;7.65;;
56670;SDS011;42545;50.054;8.306;2022-11-15T10:29:52;9.68;;;7.63;;
56670;SDS011;42545;50.054;8.306;2022-11-15T10:32:21;14.82;;;10.52;;
56670;SDS011;42545;50.054;8.306;2022-11-15T10:34:50;15.82;;;11.88;;
56670;SDS011;42545;50.054;8.306;2022-11-15T10:37:26;15.55;;;10.50;;
56670;SDS011;42545;50.054;8.306;2022-11-15T10:40:03;15.38;;;10.68;;
56670;SDS011;42545;50.054;8.306;2022-11-15T10:42:32;15.07;;;11.20;;
56670;SDS011;42545;50.054;8.306;2022-11-15T10:44:59;14.52;;;10.73;;
56670;SDS011;42545;50.054;8.306;2022-11-15T10:47:29;16.75;;;11.23;;
56670;SDS011;42545;50.054;8.306;2022-11-15T10:50:05;14.75;;;11.55;;
56670;SDS011;42545;50.054;8.306;2022-11-15T10:52:51;11.25;;;9.35;;
56670;SDS011;42545;50.054;8.306;2022-11-15T10:55:21;14.13;;;9.00;;
56670;SDS011;42545;50.054;8.306;2022-11-15T10:57:53;13.07;;;9.07;;
56670;SDS011;42545;50.054;8.306;2022-11-15T11:00:28;14.07;;;8.75;;
56670;SDS011;42545;50.054;8.306;2022-11-15T11:03:00;11.13;;;8.02;;
56670;SDS011;42545;50.054;8.306;2022-11-15T11:05:31;9.00;;;7.18;;
56670;SDS011;42545;50.054;8.306;2022-11-15T11:08:02;12.13;;;7.68;;
56670;SDS011;42545;50.054;8.306;2022-11-15T11:10:33;13.90;;;9.15;;
56670;SDS011;42545;50.054;8.306;2022-11-15T11:13:12;13.13;;;7.97;;
56670;SDS011;42545;50.054;8.306;2022-11-15T11:15:40;13.73;;;8.88;;
56670;SDS011;42545;50.054;8.306;2022-11-15T11:18:16;10.63;;;7.22;;
56670;SDS011;42545;50.054;8.306;2022-11-15T11:20:54;10.88;;;7.90;;
56670;SDS011;42545;50.054;8.306;2022-11-15T11:23:32;10.15;;;7.90;;
56670;SDS011;42545;50.054;8.306;2022-11-15T11:26:12;14.75;;;9.25;;
56670;SDS011;42545;50.054;8.306;2022-11-15T11:28:47;12.52;;;8.35;;
56670;SDS011;42545;50.054;8.306;2022-11-15T11:31:20;14.13;;;8.82;;
56670;SDS011;42545;50.054;8.306;2022-11-15T11:34:02;11.93;;;9.00;;
56670;SDS011;42545;50.054;8.306;2022-11-15T11:36:39;12.38;;;9.13;;
56670;SDS011;42545;50.054;8.306;2022-11-15T11:39:18;13.55;;;9.45;;
56670;SDS011;42545;50.054;8.306;2022-11-15T11:41:59;10.18;;;7.75;;
56670;SDS011;42545;50.054;8.306;2022-11-15T11:44:33;10.10;;;7.82;;
56670;SDS011;42545;50.054;8.306;2022-11-15T11:47:07;9.50;;;6.88;;
56670;SDS011;42545;50.054;8.306;2022-11-15T11:49:41;11.68;;;8.07;;
56670;SDS011;42545;50.054;8.306;2022-11-15T11:52:14;11.82;;;8.43;;
56670;SDS011;42545;50.054;8.306;2022-11-15T11:54:48;11.50;;;7.70;;
56670;SDS011;42545;50.054;8.306;2022-11-15T11:57:23;11.75;;;8.00;;
56670;SDS011;42545;50.054;8.306;2022-11-15T11:59:58;10.90;;;7.80;;
56670;SDS011;42545;50.054;8.306;2022-11-15T12:02:29;11.10;;;7.15;;
56670;SDS011;42545;50.054;8.306;2022-11-15T12:05:04;10.98;;;6.60;;
56670;SDS011;42545;50.054;8.306;2022-11-15T12:07:37;9.68;;;6.93;;
56670;SDS011;42545;50.054;8.306;2022-11-15T12:10:11;10.38;;;7.70;;
56670;SDS011;42545;50.054;8.306;2022-11-15T12:12:47;10.75;;;7.35;;
56670;SDS011;42545;50.054;8.306;2022-11-15T12:15:22;9.95;;;7.05;;
56670;SDS011;42545;50.054;8.306;2022-11-15T12:20:21;10.25;;;7.25;;
56670;SDS011;42545;50.054;8.306;2022-11-15T12:22:53;12.35;;;7.47;;
56670;SDS011;42545;50.054;8.306;2022-11-15T12:25:25;10.27;;;6.95;;
56670;SDS011;42545;50.054;8.306;2022-11-15T12:27:58;8.77;;;6.15;;
56670;SDS011;42545;50.054;8.306;2022-11-15T12:30:39;9.25;;;6.55;;
56670;SDS011;42545;50.054;8.306;2022-11-15T12:36:00;9.70;;;6.70;;
56670;SDS011;42545;50.054;8.306;2022-11-15T12:41:24;10.70;;;6.00;;
56670;SDS011;42545;50.054;8.306;2022-11-15T12:43:52;11.98;;;7.00;;
56670;SDS011;42545;50.054;8.306;2022-11-15T12:46:22;10.00;;;6.45;;
56670;SDS011;42545;50.054;8.306;2022-11-15T12:52:06;7.28;;;5.47;;
56670;SDS011;42545;50.054;8.306;2022-11-15T12:54:52;12.07;;;6.72;;
56670;SDS011;42545;50.054;8.306;2022-11-15T12:57:22;8.82;;;5.80;;
56670;SDS011;42545;50.054;8.306;2022-11-15T13:03:16;8.70;;;6.28;;
56670;SDS011;42545;50.054;8.306;2022-11-15T13:05:55;8.13;;;4.95;;
56670;SDS011;42545;50.054;8.306;2022-11-15T13:08:36;7.50;;;5.20;;
56670;SDS011;42545;50.054;8.306;2022-11-15T13:17:21;9.43;;;6.28;;
56670;SDS011;42545;50.054;8.306;2022-11-15T13:22:48;8.35;;;5.75;;
56670;SDS011;42545;50.054;8.306;2022-11-15T13:25:42;9.75;;;6.63;;
56670;SDS011;42545;50.054;8.306;2022-11-15T13:28:23;8.05;;;5.53;;
56670;SDS011;42545;50.054;8.306;2022-11-15T13:30:58;10.85;;;6.50;;
56670;SDS011;42545;50.054;8.306;2022-11-15T13:33:28;8.55;;;5.65;;
56670;SDS011;42545;50.054;8.306;2022-11-15T13:36:00;6.68;;;5.30;;
56670;SDS011;42545;50.054;8.306;2022-11-15T13:38:31;9.80;;;5.53;;
56670;SDS011;42545;50.054;8.306;2022-11-15T13:41:11;9.25;;;6.18;;
56670;SDS011;42545;50.054;8.306;2022-11-15T13:43:45;6.20;;;4.65;;
56670;SDS011;42545;50.054;8.306;2022-11-15T13:46:13;6.85;;;5.20;;
56670;SDS011;42545;50.054;8.306;2022-11-15T13:48:44;5.55;;;4.45;;
56670;SDS011;42545;50.054;8.306;2022-11-15T13:51:15;6.37;;;5.10;;
56670;SDS011;42545;50.054;8.306;2022-11-15T13:53:47;6.07;;;4.40;;
56670;SDS011;42545;50.054;8.306;2022-11-15T13:56:21;5.80;;;3.92;;
56670;SDS011;42545;50.054;8.306;2022-11-15T13:58:48;6.55;;;4.32;;
56670;SDS011;42545;50.054;8.306;2022-11-15T14:01:16;5.60;;;3.97;;
56670;SDS011;42545;50.054;8.306;2022-11-15T14:03:48;5.75;;;4.00;;
56670;SDS011;42545;50.054;8.306;2022-11-15T14:06:18;5.53;;;3.28;;
56670;SDS011;42545;50.054;8.306;2022-11-15T14:09:01;4.38;;;3.55;;
56670;SDS011;42545;50.054;8.306;2022-11-15T14:11:50;7.25;;;4.57;;
56670;SDS011;42545;50.054;8.306;2022-11-15T14:14:19;6.05;;;4.28;;
56670;SDS011;42545;50.054;8.306;2022-11-15T14:16:48;4.85;;;3.53;;
56670;SDS011;42545;50.054;8.306;2022-11-15T14:19:36;5.40;;;3.28;;
56670;SDS011;42545;50.054;8.306;2022-11-15T14:22:09;5.38;;;3.97;;
56670;SDS011;42545;50.054;8.306;2022-11-15T14:24:43;6.50;;;4.18;;
56670;SDS011;42545;50.054;8.306;2022-11-15T14:27:20;7.10;;;3.90;;
56670;SDS011;42545;50.054;8.306;2022-11-15T14:29:49;4.60;;;3.53;;
56670;SDS011;42545;50.054;8.306;2022-11-15T14:32:17;4.13;;;3.38;;
56670;SDS011;42545;50.054;8.306;2022-11-15T14:34:46;4.88;;;3.10;;
56670;SDS011;42545;50.054;8.306;2022-11-15T14:37:20;4.60;;;3.20;;
56670;SDS011;42545;50.054;8.306;2022-11-15T14:39:50;4.30;;;3.38;;
56670;SDS011;42545;50.054;8.306;2022-11-15T14:42:20;4.95;;;3.80;;
56670;SDS011;42545;50.054;8.306;2022-11-15T14:44:50;6.03;;;4.47;;
56670;SDS011;42545;50.054;8.306;2022-11-15T14:47:19;6.33;;;4.40;;
56670;SDS011;42545;50.054;8.306;2022-11-15T14:49:46;6.13;;;3.83;;
56670;SDS011;42545;50.054;8.306;2022-11-15T14:52:24;5.72;;;3.60;;
56670;SDS011;42545;50.054;8.306;2022-11-15T14:57:22;4.00;;;3.10;;
56670;SDS011;42545;50.054;8.306;2022-11-15T14:59:50;4.03;;;3.08;;
56670;SDS011;42545;50.054;8.306;2022-11-15T15:02:18;6.05;;;4.18;;
56670;SDS011;42545;50.054;8.306;2022-11-15T15:04:46;5.70;;;3.70;;
56670;SDS011;42545;50.054;8.306;2022-11-15T15:07:13;5.07;;;3.47;;
56670;SDS011;42545;50.054;8.306;2022-11-15T15:09:41;5.82;;;4.45;;
56670;SDS011;42545;50.054;8.306;2022-11-15T15:12:12;5.60;;;4.00;;
56670;SDS011;42545;50.054;8.306;2022-11-15T15:14:45;7.25;;;4.55;;
56670;SDS011;42545;50.054;8.306;2022-11-15T15:17:13;9.23;;;5.72;;
56670;SDS011;42545;50.054;8.306;2022-11-15T15:19:41;5.03;;;4.25;;
56670;SDS011;42545;50.054;8.306;2022-11-15T15:22:09;7.32;;;5.28;;
56670;SDS011;42545;50.054;8.306;2022-11-15T15:24:40;6.43;;;4.10;;
56670;SDS011;42545;50.054;8.306;2022-11-15T15:27:07;5.18;;;3.75;;
56670;SDS011;42545;50.054;8.306;2022-11-15T15:29:35;5.47;;;3.75;;
56670;SDS011;42545;50.054;8.306;2022-11-15T15:32:04;4.25;;;3.13;;
56670;SDS011;42545;50.054;8.306;2022-11-15T15:34:32;4.10;;;2.77;;
56670;SDS011;42545;50.054;8.306;2022-11-15T15:37:09;3.83;;;2.75;;
56670;SDS011;42545;50.054;8.306;2022-11-15T15:39:49;3.50;;;2.60;;
56670;SDS011;42545;50.054;8.306;2022-11-15T15:42:18;4.07;;;2.70;;